sensor_id;sensor_type;location;lat;lon;timestamp;temperature;humidity
34766;DHT22;20984;43.508;1.504;2022-10-04T00:01:52;13.00;99.90
34766;DHT22;20984;43.508;1.504;2022-10-04T00:04:40;13.00;99.90
34766;DHT22;20984;43.508;1.504;2022-10-04T00:10:01;12.80;99.90
34766;DHT22;20984;43.508;1.504;2022-10-04T00:15:00;12.80;99.90
34766;DHT22;20984;43.508;1.504;2022-10-04T00:17:29;12.80;99.90
34766;DHT22;20984;43.508;1.504;2022-10-04T00:20:02;12.70;99.90
34766;DHT22;20984;43.508;1.504;2022-10-04T00:22:32;12.70;99.90
34766;DHT22;20984;43.508;1.504;2022-10-04T00:25:15;12.70;99.90
34766;DHT22;20984;43.508;1.504;2022-10-04T00:30:39;12.60;99.90
34766;DHT22;20984;43.508;1.504;2022-10-04T00:33:05;12.50;99.90
34766;DHT22;20984;43.508;1.504;2022-10-04T00:38:00;12.50;99.90
34766;DHT22;20984;43.508;1.504;2022-10-04T00:43:06;12.40;99.90
34766;DHT22;20984;43.508;1.504;2022-10-04T00:45:44;12.40;99.90
34766;DHT22;20984;43.508;1.504;2022-10-04T01:02:43;12.20;99.90
34766;DHT22;20984;43.508;1.504;2022-10-04T01:04:47;12.20;99.90
34766;DHT22;20984;43.508;1.504;2022-10-04T01:07:18;12.20;99.90
34766;DHT22;20984;43.508;1.504;2022-10-04T01:09:58;12.20;99.90
34766;DHT22;20984;43.508;1.504;2022-10-04T01:12:43;12.20;99.90
34766;DHT22;20984;43.508;1.504;2022-10-04T01:18:11;12.10;99.90
34766;DHT22;20984;43.508;1.504;2022-10-04T01:20:52;12.10;99.90
34766;DHT22;20984;43.508;1.504;2022-10-04T01:23:47;12.00;99.90
34766;DHT22;20984;43.508;1.504;2022-10-04T01:29:13;12.00;99.90
34766;DHT22;20984;43.508;1.504;2022-10-04T01:31:51;11.90;99.90
34766;DHT22;20984;43.508;1.504;2022-10-04T01:34:19;11.90;99.90
34766;DHT22;20984;43.508;1.504;2022-10-04T01:36:47;11.90;99.90
34766;DHT22;20984;43.508;1.504;2022-10-04T01:39:15;11.90;99.90
34766;DHT22;20984;43.508;1.504;2022-10-04T01:44:21;11.80;99.90
34766;DHT22;20984;43.508;1.504;2022-10-04T01:46:49;11.80;99.90
34766;DHT22;20984;43.508;1.504;2022-10-04T01:49:19;11.80;99.90
34766;DHT22;20984;43.508;1.504;2022-10-04T01:52:06;11.80;99.90
34766;DHT22;20984;43.508;1.504;2022-10-04T01:55:08;11.80;99.90
34766;DHT22;20984;43.508;1.504;2022-10-04T01:57:33;11.80;99.90
34766;DHT22;20984;43.508;1.504;2022-10-04T02:00:11;11.70;99.90
34766;DHT22;20984;43.508;1.504;2022-10-04T02:05:55;11.70;99.90
34766;DHT22;20984;43.508;1.504;2022-10-04T02:08:26;11.60;99.90
34766;DHT22;20984;43.508;1.504;2022-10-04T02:10:54;11.70;99.90
34766;DHT22;20984;43.508;1.504;2022-10-04T02:13:23;11.70;99.90
34766;DHT22;20984;43.508;1.504;2022-10-04T02:15:52;11.60;99.90
34766;DHT22;20984;43.508;1.504;2022-10-04T02:18:20;11.60;99.90
34766;DHT22;20984;43.508;1.504;2022-10-04T02:20:48;11.50;99.90
34766;DHT22;20984;43.508;1.504;2022-10-04T02:23:19;11.50;99.90
34766;DHT22;20984;43.508;1.504;2022-10-04T02:25:47;11.50;99.90
34766;DHT22;20984;43.508;1.504;2022-10-04T02:28:14;11.50;99.90
34766;DHT22;20984;43.508;1.504;2022-10-04T02:30:45;11.50;99.90
34766;DHT22;20984;43.508;1.504;2022-10-04T02:33:32;11.40;99.90
34766;DHT22;20984;43.508;1.504;2022-10-04T02:35:58;11.50;99.90
34766;DHT22;20984;43.508;1.504;2022-10-04T02:38:28;11.50;99.90
34766;DHT22;20984;43.508;1.504;2022-10-04T02:41:24;11.40;99.90
34766;DHT22;20984;43.508;1.504;2022-10-04T02:46:52;11.40;99.90
34766;DHT22;20984;43.508;1.504;2022-10-04T02:54:35;11.30;99.90
34766;DHT22;20984;43.508;1.504;2022-10-04T02:57:16;11.30;99.90
34766;DHT22;20984;43.508;1.504;2022-10-04T02:59:44;11.30;99.90
34766;DHT22;20984;43.508;1.504;2022-10-04T03:02:26;11.20;99.90
34766;DHT22;20984;43.508;1.504;2022-10-04T03:04:54;11.30;99.90
34766;DHT22;20984;43.508;1.504;2022-10-04T03:07:21;11.30;99.90
34766;DHT22;20984;43.508;1.504;2022-10-04T03:09:48;11.30;99.90
34766;DHT22;20984;43.508;1.504;2022-10-04T03:12:15;11.30;99.90
34766;DHT22;20984;43.508;1.504;2022-10-04T03:14:41;11.20;99.90
34766;DHT22;20984;43.508;1.504;2022-10-04T03:17:07;11.20;99.90
34766;DHT22;20984;43.508;1.504;2022-10-04T03:19:34;11.20;99.90
34766;DHT22;20984;43.508;1.504;2022-10-04T03:22:07;11.20;99.90
34766;DHT22;20984;43.508;1.504;2022-10-04T03:24:38;11.10;99.90
34766;DHT22;20984;43.508;1.504;2022-10-04T03:27:08;11.10;99.90
34766;DHT22;20984;43.508;1.504;2022-10-04T03:29:40;11.10;99.90
34766;DHT22;20984;43.508;1.504;2022-10-04T03:32:12;11.10;99.90
34766;DHT22;20984;43.508;1.504;2022-10-04T03:34:41;11.10;99.90
34766;DHT22;20984;43.508;1.504;2022-10-04T03:37:15;11.10;99.90
34766;DHT22;20984;43.508;1.504;2022-10-04T03:39:47;11.10;99.90
34766;DHT22;20984;43.508;1.504;2022-10-04T03:42:19;11.10;99.90
34766;DHT22;20984;43.508;1.504;2022-10-04T03:44:48;11.10;99.90
34766;DHT22;20984;43.508;1.504;2022-10-04T03:47:26;11.10;99.90
34766;DHT22;20984;43.508;1.504;2022-10-04T03:49:56;11.10;99.90
34766;DHT22;20984;43.508;1.504;2022-10-04T03:52:31;11.10;99.90
34766;DHT22;20984;43.508;1.504;2022-10-04T03:55:01;11.00;99.90
34766;DHT22;20984;43.508;1.504;2022-10-04T03:57:29;11.10;99.90
34766;DHT22;20984;43.508;1.504;2022-10-04T03:59:56;11.00;99.90
34766;DHT22;20984;43.508;1.504;2022-10-04T04:08:13;11.10;99.90
34766;DHT22;20984;43.508;1.504;2022-10-04T04:10:48;11.00;99.90
34766;DHT22;20984;43.508;1.504;2022-10-04T04:16:05;11.00;99.90
34766;DHT22;20984;43.508;1.504;2022-10-04T04:18:33;11.00;99.90
34766;DHT22;20984;43.508;1.504;2022-10-04T04:21:02;11.00;99.90
34766;DHT22;20984;43.508;1.504;2022-10-04T04:23:33;11.00;99.90
34766;DHT22;20984;43.508;1.504;2022-10-04T04:28:48;10.90;99.90
34766;DHT22;20984;43.508;1.504;2022-10-04T04:31:25;10.80;99.90
34766;DHT22;20984;43.508;1.504;2022-10-04T04:33:57;10.80;99.90
34766;DHT22;20984;43.508;1.504;2022-10-04T04:36:26;10.70;99.90
34766;DHT22;20984;43.508;1.504;2022-10-04T04:38:53;10.70;99.90
34766;DHT22;20984;43.508;1.504;2022-10-04T04:41:38;10.60;99.90
34766;DHT22;20984;43.508;1.504;2022-10-04T04:44:16;10.60;99.90
34766;DHT22;20984;43.508;1.504;2022-10-04T04:46:44;10.60;99.90
34766;DHT22;20984;43.508;1.504;2022-10-04T04:49:10;10.50;99.90
34766;DHT22;20984;43.508;1.504;2022-10-04T04:51:38;10.50;99.90
34766;DHT22;20984;43.508;1.504;2022-10-04T04:54:06;10.50;99.90
34766;DHT22;20984;43.508;1.504;2022-10-04T04:56:33;10.50;99.90
34766;DHT22;20984;43.508;1.504;2022-10-04T04:59:03;10.50;99.90
34766;DHT22;20984;43.508;1.504;2022-10-04T05:01:42;10.40;99.90
34766;DHT22;20984;43.508;1.504;2022-10-04T05:06:57;10.40;99.90
34766;DHT22;20984;43.508;1.504;2022-10-04T05:09:24;10.40;99.90
34766;DHT22;20984;43.508;1.504;2022-10-04T05:11:52;10.40;99.90
34766;DHT22;20984;43.508;1.504;2022-10-04T05:14:20;10.40;99.90
34766;DHT22;20984;43.508;1.504;2022-10-04T05:16:54;10.40;99.90
34766;DHT22;20984;43.508;1.504;2022-10-04T05:19:24;10.30;99.90
34766;DHT22;20984;43.508;1.504;2022-10-04T05:21:53;10.40;99.90
34766;DHT22;20984;43.508;1.504;2022-10-04T05:24:31;10.30;99.90
34766;DHT22;20984;43.508;1.504;2022-10-04T05:27:04;10.30;99.90
34766;DHT22;20984;43.508;1.504;2022-10-04T05:29:34;10.20;99.90
34766;DHT22;20984;43.508;1.504;2022-10-04T05:34:40;10.20;99.90
34766;DHT22;20984;43.508;1.504;2022-10-04T05:39:56;10.10;99.90
34766;DHT22;20984;43.508;1.504;2022-10-04T05:42:38;10.10;99.90
34766;DHT22;20984;43.508;1.504;2022-10-04T05:45:22;10.10;99.90
34766;DHT22;20984;43.508;1.504;2022-10-04T05:47:54;10.00;99.90
34766;DHT22;20984;43.508;1.504;2022-10-04T05:50:37;10.00;99.90
34766;DHT22;20984;43.508;1.504;2022-10-04T06:04:36;10.00;99.90
34766;DHT22;20984;43.508;1.504;2022-10-04T06:07:28;10.00;99.90
34766;DHT22;20984;43.508;1.504;2022-10-04T06:10:18;10.00;99.90
34766;DHT22;20984;43.508;1.504;2022-10-04T06:20:57;10.10;99.90
34766;DHT22;20984;43.508;1.504;2022-10-04T06:23:25;10.20;99.90
34766;DHT22;20984;43.508;1.504;2022-10-04T06:26:20;10.20;99.90
34766;DHT22;20984;43.508;1.504;2022-10-04T06:28:48;10.30;99.90
34766;DHT22;20984;43.508;1.504;2022-10-04T06:34:06;10.40;99.90
34766;DHT22;20984;43.508;1.504;2022-10-04T06:37:12;10.50;99.90
34766;DHT22;20984;43.508;1.504;2022-10-04T06:43:18;10.60;99.90
34766;DHT22;20984;43.508;1.504;2022-10-04T06:46:06;10.70;99.90
34766;DHT22;20984;43.508;1.504;2022-10-04T06:56:54;11.00;99.90
34766;DHT22;20984;43.508;1.504;2022-10-04T07:01:55;11.10;99.90
34766;DHT22;20984;43.508;1.504;2022-10-04T07:04:43;11.20;99.90
34766;DHT22;20984;43.508;1.504;2022-10-04T07:12:40;11.50;99.90
34766;DHT22;20984;43.508;1.504;2022-10-04T07:15:47;11.60;99.90
34766;DHT22;20984;43.508;1.504;2022-10-04T07:18:22;11.70;99.90
34766;DHT22;20984;43.508;1.504;2022-10-04T07:20:51;11.90;99.90
34766;DHT22;20984;43.508;1.504;2022-10-04T07:23:29;12.10;99.90
34766;DHT22;20984;43.508;1.504;2022-10-04T07:26:06;12.20;99.90
34766;DHT22;20984;43.508;1.504;2022-10-04T07:28:41;12.30;99.90
34766;DHT22;20984;43.508;1.504;2022-10-04T07:31:31;12.50;99.90
34766;DHT22;20984;43.508;1.504;2022-10-04T07:34:19;12.60;99.90
34766;DHT22;20984;43.508;1.504;2022-10-04T07:36:58;12.80;99.90
34766;DHT22;20984;43.508;1.504;2022-10-04T07:39:38;12.90;99.90
34766;DHT22;20984;43.508;1.504;2022-10-04T07:42:28;13.00;99.90
34766;DHT22;20984;43.508;1.504;2022-10-04T07:45:22;13.20;99.90
34766;DHT22;20984;43.508;1.504;2022-10-04T07:47:48;13.20;99.90
34766;DHT22;20984;43.508;1.504;2022-10-04T07:50:21;13.20;99.90
34766;DHT22;20984;43.508;1.504;2022-10-04T07:53:03;13.30;99.90
34766;DHT22;20984;43.508;1.504;2022-10-04T08:14:26;14.00;99.90
34766;DHT22;20984;43.508;1.504;2022-10-04T08:43:00;15.40;99.90
34766;DHT22;20984;43.508;1.504;2022-10-04T08:59:13;16.00;99.90
34766;DHT22;20984;43.508;1.504;2022-10-04T09:08:21;16.40;99.90
34766;DHT22;20984;43.508;1.504;2022-10-04T09:24:57;16.90;99.90
34766;DHT22;20984;43.508;1.504;2022-10-04T09:30:22;17.10;99.90
34766;DHT22;20984;43.508;1.504;2022-10-04T09:38:22;17.40;99.90
34766;DHT22;20984;43.508;1.504;2022-10-04T09:43:58;17.60;99.90
34766;DHT22;20984;43.508;1.504;2022-10-04T09:46:38;17.70;99.90
34766;DHT22;20984;43.508;1.504;2022-10-04T10:03:20;18.50;99.90
34766;DHT22;20984;43.508;1.504;2022-10-04T10:09:21;18.70;99.90
34766;DHT22;20984;43.508;1.504;2022-10-04T10:15:29;18.80;99.90
34766;DHT22;20984;43.508;1.504;2022-10-04T10:18:07;19.00;99.90
34766;DHT22;20984;43.508;1.504;2022-10-04T10:21:03;19.10;99.90
34766;DHT22;20984;43.508;1.504;2022-10-04T10:40:35;19.50;99.90
34766;DHT22;20984;43.508;1.504;2022-10-04T10:46:15;19.70;99.90
34766;DHT22;20984;43.508;1.504;2022-10-04T11:00:13;20.00;99.90
34766;DHT22;20984;43.508;1.504;2022-10-04T11:03:03;20.10;99.90
34766;DHT22;20984;43.508;1.504;2022-10-04T11:06:04;20.20;99.90
34766;DHT22;20984;43.508;1.504;2022-10-04T11:28:50;20.80;99.90
34766;DHT22;20984;43.508;1.504;2022-10-04T11:31:55;20.90;99.90
34766;DHT22;20984;43.508;1.504;2022-10-04T11:48:37;21.20;99.90
34766;DHT22;20984;43.508;1.504;2022-10-04T11:59:08;21.20;99.90
34766;DHT22;20984;43.508;1.504;2022-10-04T12:10:41;21.40;99.90
34766;DHT22;20984;43.508;1.504;2022-10-04T12:24:45;21.70;99.90
34766;DHT22;20984;43.508;1.504;2022-10-04T12:27:38;21.70;99.90
34766;DHT22;20984;43.508;1.504;2022-10-04T12:35:52;21.80;99.90
34766;DHT22;20984;43.508;1.504;2022-10-04T12:48:52;22.30;99.90
34766;DHT22;20984;43.508;1.504;2022-10-04T12:51:35;22.40;99.90
34766;DHT22;20984;43.508;1.504;2022-10-04T12:55:02;22.50;99.90
34766;DHT22;20984;43.508;1.504;2022-10-04T12:57:40;22.70;99.90
34766;DHT22;20984;43.508;1.504;2022-10-04T13:00:20;22.70;99.90
34766;DHT22;20984;43.508;1.504;2022-10-04T13:06:21;22.80;99.90
34766;DHT22;20984;43.508;1.504;2022-10-04T13:14:39;22.80;99.90
34766;DHT22;20984;43.508;1.504;2022-10-04T13:17:31;22.90;99.90
34766;DHT22;20984;43.508;1.504;2022-10-04T13:34:35;23.40;99.90
34766;DHT22;20984;43.508;1.504;2022-10-04T13:37:33;23.40;99.90
34766;DHT22;20984;43.508;1.504;2022-10-04T13:55:00;23.40;99.90
34766;DHT22;20984;43.508;1.504;2022-10-04T13:57:29;23.40;99.90
34766;DHT22;20984;43.508;1.504;2022-10-04T14:00:12;23.50;99.90
34766;DHT22;20984;43.508;1.504;2022-10-04T14:25:47;23.70;99.90
34766;DHT22;20984;43.508;1.504;2022-10-04T14:31:20;24.00;99.90
34766;DHT22;20984;43.508;1.504;2022-10-04T14:39:58;24.10;99.90
34766;DHT22;20984;43.508;1.504;2022-10-04T15:01:18;24.20;99.90
34766;DHT22;20984;43.508;1.504;2022-10-04T15:07:01;24.00;99.90
34766;DHT22;20984;43.508;1.504;2022-10-04T15:18:00;23.20;99.90
34766;DHT22;20984;43.508;1.504;2022-10-04T15:23:14;22.80;99.90
34766;DHT22;20984;43.508;1.504;2022-10-04T15:25:45;22.70;99.90
34766;DHT22;20984;43.508;1.504;2022-10-04T15:51:42;22.10;99.90
34766;DHT22;20984;43.508;1.504;2022-10-04T15:54:42;21.70;99.90
34766;DHT22;20984;43.508;1.504;2022-10-04T16:00:52;21.10;99.90
34766;DHT22;20984;43.508;1.504;2022-10-04T16:11:53;20.40;99.90
34766;DHT22;20984;43.508;1.504;2022-10-04T16:19:58;20.10;99.90
34766;DHT22;20984;43.508;1.504;2022-10-04T16:22:31;20.00;99.90
34766;DHT22;20984;43.508;1.504;2022-10-04T16:33:39;19.80;99.90
34766;DHT22;20984;43.508;1.504;2022-10-04T16:38:50;19.70;99.90
34766;DHT22;20984;43.508;1.504;2022-10-04T16:41:51;19.70;99.90
34766;DHT22;20984;43.508;1.504;2022-10-04T16:44:37;19.70;99.90
34766;DHT22;20984;43.508;1.504;2022-10-04T16:47:33;19.70;99.90
34766;DHT22;20984;43.508;1.504;2022-10-04T16:50:02;19.60;99.90
34766;DHT22;20984;43.508;1.504;2022-10-04T17:09:17;19.30;99.90
34766;DHT22;20984;43.508;1.504;2022-10-04T17:31:00;18.60;99.90
34766;DHT22;20984;43.508;1.504;2022-10-04T17:39:46;18.60;99.90
34766;DHT22;20984;43.508;1.504;2022-10-04T17:47:57;18.60;99.90
34766;DHT22;20984;43.508;1.504;2022-10-04T17:50:54;18.50;99.90
34766;DHT22;20984;43.508;1.504;2022-10-04T17:53:41;18.40;99.90
34766;DHT22;20984;43.508;1.504;2022-10-04T17:56:38;18.30;99.90
34766;DHT22;20984;43.508;1.504;2022-10-04T17:59:26;18.30;99.90
34766;DHT22;20984;43.508;1.504;2022-10-04T18:05:14;18.30;99.90
34766;DHT22;20984;43.508;1.504;2022-10-04T18:13:24;18.20;99.90
34766;DHT22;20984;43.508;1.504;2022-10-04T18:16:09;18.20;99.90
34766;DHT22;20984;43.508;1.504;2022-10-04T18:18:43;18.20;99.90
34766;DHT22;20984;43.508;1.504;2022-10-04T18:21:21;18.20;99.90
34766;DHT22;20984;43.508;1.504;2022-10-04T18:23:53;18.10;99.90
34766;DHT22;20984;43.508;1.504;2022-10-04T18:26:20;18.10;99.90
34766;DHT22;20984;43.508;1.504;2022-10-04T18:28:48;18.00;99.90
34766;DHT22;20984;43.508;1.504;2022-10-04T18:31:39;18.00;99.90
34766;DHT22;20984;43.508;1.504;2022-10-04T18:34:25;17.90;99.90
34766;DHT22;20984;43.508;1.504;2022-10-04T18:39:46;17.60;99.90
34766;DHT22;20984;43.508;1.504;2022-10-04T18:42:17;17.50;99.90
34766;DHT22;20984;43.508;1.504;2022-10-04T18:44:57;17.40;99.90
34766;DHT22;20984;43.508;1.504;2022-10-04T18:47:44;17.20;99.90
34766;DHT22;20984;43.508;1.504;2022-10-04T18:58:13;16.90;99.90
34766;DHT22;20984;43.508;1.504;2022-10-04T19:01:14;16.80;99.90
34766;DHT22;20984;43.508;1.504;2022-10-04T19:04:13;16.70;99.90
34766;DHT22;20984;43.508;1.504;2022-10-04T19:06:43;16.60;99.90
34766;DHT22;20984;43.508;1.504;2022-10-04T19:12:04;16.50;99.90
34766;DHT22;20984;43.508;1.504;2022-10-04T19:14:58;16.50;99.90
34766;DHT22;20984;43.508;1.504;2022-10-04T19:17:33;16.50;99.90
34766;DHT22;20984;43.508;1.504;2022-10-04T19:25:58;16.50;99.90
34766;DHT22;20984;43.508;1.504;2022-10-04T19:28:31;16.50;99.90
34766;DHT22;20984;43.508;1.504;2022-10-04T19:31:17;16.40;99.90
34766;DHT22;20984;43.508;1.504;2022-10-04T19:33:49;16.30;99.90
34766;DHT22;20984;43.508;1.504;2022-10-04T19:42:02;16.10;99.90
34766;DHT22;20984;43.508;1.504;2022-10-04T19:50:48;16.00;99.90
34766;DHT22;20984;43.508;1.504;2022-10-04T19:52:49;15.90;99.90
34766;DHT22;20984;43.508;1.504;2022-10-04T19:55:22;15.80;99.90
34766;DHT22;20984;43.508;1.504;2022-10-04T19:57:53;15.80;99.90
34766;DHT22;20984;43.508;1.504;2022-10-04T20:00:20;15.70;99.90
34766;DHT22;20984;43.508;1.504;2022-10-04T20:02:47;15.70;99.90
34766;DHT22;20984;43.508;1.504;2022-10-04T20:05:15;15.60;99.90
34766;DHT22;20984;43.508;1.504;2022-10-04T20:07:48;15.50;99.90
34766;DHT22;20984;43.508;1.504;2022-10-04T20:10:34;15.40;99.90
34766;DHT22;20984;43.508;1.504;2022-10-04T20:26:09;15.00;99.90
34766;DHT22;20984;43.508;1.504;2022-10-04T20:28:38;14.90;99.90
34766;DHT22;20984;43.508;1.504;2022-10-04T20:31:09;14.80;99.90
34766;DHT22;20984;43.508;1.504;2022-10-04T20:36:08;14.70;99.90
34766;DHT22;20984;43.508;1.504;2022-10-04T20:44:43;14.60;99.90
34766;DHT22;20984;43.508;1.504;2022-10-04T20:47:34;14.60;99.90
34766;DHT22;20984;43.508;1.504;2022-10-04T20:50:13;14.60;99.90
34766;DHT22;20984;43.508;1.504;2022-10-04T20:52:46;14.50;99.90
34766;DHT22;20984;43.508;1.504;2022-10-04T20:55:32;14.50;99.90
34766;DHT22;20984;43.508;1.504;2022-10-04T20:58:02;14.40;99.90
34766;DHT22;20984;43.508;1.504;2022-10-04T21:00:32;14.40;99.90
34766;DHT22;20984;43.508;1.504;2022-10-04T21:03:16;14.40;99.90
34766;DHT22;20984;43.508;1.504;2022-10-04T21:05:43;14.40;99.90
34766;DHT22;20984;43.508;1.504;2022-10-04T21:08:24;14.30;99.90
34766;DHT22;20984;43.508;1.504;2022-10-04T21:16:06;14.20;99.90
34766;DHT22;20984;43.508;1.504;2022-10-04T21:18:32;14.10;99.90
34766;DHT22;20984;43.508;1.504;2022-10-04T21:20:58;14.10;99.90
34766;DHT22;20984;43.508;1.504;2022-10-04T21:23:29;14.10;99.90
34766;DHT22;20984;43.508;1.504;2022-10-04T21:26:20;14.00;99.90
34766;DHT22;20984;43.508;1.504;2022-10-04T21:28:51;14.00;99.90
34766;DHT22;20984;43.508;1.504;2022-10-04T21:31:17;14.00;99.90
34766;DHT22;20984;43.508;1.504;2022-10-04T21:33:43;14.00;99.90
34766;DHT22;20984;43.508;1.504;2022-10-04T21:36:09;13.90;99.90
34766;DHT22;20984;43.508;1.504;2022-10-04T21:38:35;13.90;99.90
34766;DHT22;20984;43.508;1.504;2022-10-04T21:41:01;13.80;99.90
34766;DHT22;20984;43.508;1.504;2022-10-04T21:43:27;13.70;99.90
34766;DHT22;20984;43.508;1.504;2022-10-04T21:45:53;13.70;99.90
34766;DHT22;20984;43.508;1.504;2022-10-04T21:48:19;13.70;99.90
34766;DHT22;20984;43.508;1.504;2022-10-04T21:50:48;13.60;99.90
34766;DHT22;20984;43.508;1.504;2022-10-04T21:53:14;13.50;99.90
34766;DHT22;20984;43.508;1.504;2022-10-04T21:55:40;13.50;99.90
34766;DHT22;20984;43.508;1.504;2022-10-04T21:58:06;13.50;99.90
34766;DHT22;20984;43.508;1.504;2022-10-04T22:00:32;13.50;99.90
34766;DHT22;20984;43.508;1.504;2022-10-04T22:02:58;13.40;99.90
34766;DHT22;20984;43.508;1.504;2022-10-04T22:05:24;13.40;99.90
34766;DHT22;20984;43.508;1.504;2022-10-04T22:07:50;13.40;99.90
34766;DHT22;20984;43.508;1.504;2022-10-04T22:10:16;13.30;99.90
34766;DHT22;20984;43.508;1.504;2022-10-04T22:12:42;13.30;99.90
34766;DHT22;20984;43.508;1.504;2022-10-04T22:15:08;13.30;99.90
34766;DHT22;20984;43.508;1.504;2022-10-04T22:17:34;13.30;99.90
34766;DHT22;20984;43.508;1.504;2022-10-04T22:20:00;13.20;99.90
34766;DHT22;20984;43.508;1.504;2022-10-04T22:22:28;13.20;99.90
34766;DHT22;20984;43.508;1.504;2022-10-04T22:24:56;13.20;99.90
34766;DHT22;20984;43.508;1.504;2022-10-04T22:27:22;13.20;99.90
34766;DHT22;20984;43.508;1.504;2022-10-04T22:29:48;13.10;99.90
34766;DHT22;20984;43.508;1.504;2022-10-04T22:32:21;13.20;99.90
34766;DHT22;20984;43.508;1.504;2022-10-04T22:34:57;13.10;99.90
34766;DHT22;20984;43.508;1.504;2022-10-04T22:37:23;13.10;99.90
34766;DHT22;20984;43.508;1.504;2022-10-04T22:39:50;13.10;99.90
34766;DHT22;20984;43.508;1.504;2022-10-04T22:42:16;13.10;99.90
34766;DHT22;20984;43.508;1.504;2022-10-04T22:44:42;13.10;99.90
34766;DHT22;20984;43.508;1.504;2022-10-04T22:47:13;13.00;99.90
34766;DHT22;20984;43.508;1.504;2022-10-04T22:49:44;13.10;99.90
34766;DHT22;20984;43.508;1.504;2022-10-04T22:54:45;13.00;99.90
34766;DHT22;20984;43.508;1.504;2022-10-04T22:57:13;13.00;99.90
34766;DHT22;20984;43.508;1.504;2022-10-04T22:59:46;13.00;99.90
34766;DHT22;20984;43.508;1.504;2022-10-04T23:02:21;13.00;99.90
34766;DHT22;20984;43.508;1.504;2022-10-04T23:04:57;12.90;99.90
34766;DHT22;20984;43.508;1.504;2022-10-04T23:07:25;12.90;99.90
34766;DHT22;20984;43.508;1.504;2022-10-04T23:09:51;12.90;99.90
34766;DHT22;20984;43.508;1.504;2022-10-04T23:12:16;12.90;99.90
34766;DHT22;20984;43.508;1.504;2022-10-04T23:14:42;12.80;99.90
34766;DHT22;20984;43.508;1.504;2022-10-04T23:19:40;12.80;99.90
34766;DHT22;20984;43.508;1.504;2022-10-04T23:22:11;12.80;99.90
34766;DHT22;20984;43.508;1.504;2022-10-04T23:24:39;12.80;99.90
34766;DHT22;20984;43.508;1.504;2022-10-04T23:27:14;12.70;99.90
34766;DHT22;20984;43.508;1.504;2022-10-04T23:29:41;12.70;99.90
34766;DHT22;20984;43.508;1.504;2022-10-04T23:32:15;12.70;99.90
34766;DHT22;20984;43.508;1.504;2022-10-04T23:34:46;12.70;99.90
34766;DHT22;20984;43.508;1.504;2022-10-04T23:37:20;12.70;99.90
34766;DHT22;20984;43.508;1.504;2022-10-04T23:39:47;12.60;99.90
34766;DHT22;20984;43.508;1.504;2022-10-04T23:42:19;12.60;99.90
34766;DHT22;20984;43.508;1.504;2022-10-04T23:44:47;12.60;99.90
34766;DHT22;20984;43.508;1.504;2022-10-04T23:47:18;12.60;99.90
34766;DHT22;20984;43.508;1.504;2022-10-04T23:49:46;12.60;99.90
34766;DHT22;20984;43.508;1.504;2022-10-04T23:52:19;12.60;99.90
34766;DHT22;20984;43.508;1.504;2022-10-04T23:54:47;12.60;99.90
34766;DHT22;20984;43.508;1.504;2022-10-04T23:57:23;12.60;99.90
34766;DHT22;20984;43.508;1.504;2022-10-04T23:59:50;12.60;99.90
